sensor_id;sensor_type;location;lat;lon;timestamp;pressure;altitude;pressure_sealevel;temperature;humidity
47260;BME280;32999;52.412;4.890;2022-08-04T00:04:09;101278.34;;;23.46;100.00
47260;BME280;32999;52.412;4.890;2022-08-04T00:09:16;101259.16;;;23.36;100.00
47260;BME280;32999;52.412;4.890;2022-08-04T00:14:21;101287.09;;;23.48;100.00
47260;BME280;32999;52.412;4.890;2022-08-04T00:19:40;101237.66;;;23.07;100.00
47260;BME280;32999;52.412;4.890;2022-08-04T00:24:43;101249.63;;;23.06;100.00
47260;BME280;32999;52.412;4.890;2022-08-04T00:29:46;101281.59;;;23.43;100.00
47260;BME280;32999;52.412;4.890;2022-08-04T00:34:49;101199.84;;;22.84;100.00
47260;BME280;32999;52.412;4.890;2022-08-04T00:39:53;101250.72;;;23.37;100.00
47260;BME280;32999;52.412;4.890;2022-08-04T00:45:06;101262.97;;;23.35;100.00
47260;BME280;32999;52.412;4.890;2022-08-04T00:50:18;101238.28;;;23.15;100.00
47260;BME280;32999;52.412;4.890;2022-08-04T01:01:30;101163.69;;;22.67;100.00
47260;BME280;32999;52.412;4.890;2022-08-04T01:06:38;101274.44;;;23.37;100.00
47260;BME280;32999;52.412;4.890;2022-08-04T01:11:56;101245.41;;;23.21;100.00
47260;BME280;32999;52.412;4.890;2022-08-04T01:17:18;101208.13;;;22.94;100.00
47260;BME280;32999;52.412;4.890;2022-08-04T01:28:10;101242.44;;;23.27;100.00
47260;BME280;32999;52.412;4.890;2022-08-04T01:33:20;101204.38;;;23.05;100.00
47260;BME280;32999;52.412;4.890;2022-08-04T01:38:25;101246.56;;;23.30;100.00
47260;BME280;32999;52.412;4.890;2022-08-04T01:43:31;101253.16;;;23.34;100.00
47260;BME280;32999;52.412;4.890;2022-08-04T01:48:37;101255.03;;;23.33;100.00
47260;BME280;32999;52.412;4.890;2022-08-04T01:53:41;101237.88;;;23.33;100.00
47260;BME280;32999;52.412;4.890;2022-08-04T01:58:43;101236.16;;;23.27;100.00
47260;BME280;32999;52.412;4.890;2022-08-04T02:03:47;101187.44;;;22.98;100.00
47260;BME280;32999;52.412;4.890;2022-08-04T02:08:50;101228.59;;;23.34;100.00
47260;BME280;32999;52.412;4.890;2022-08-04T02:14:01;101234.34;;;23.37;100.00
47260;BME280;32999;52.412;4.890;2022-08-04T02:19:13;101232.72;;;23.36;100.00
47260;BME280;32999;52.412;4.890;2022-08-04T02:24:20;101190.28;;;23.14;100.00
47260;BME280;32999;52.412;4.890;2022-08-04T02:29:31;101127.84;;;22.80;100.00
47260;BME280;32999;52.412;4.890;2022-08-04T02:34:38;101219.03;;;23.31;100.00
47260;BME280;32999;52.412;4.890;2022-08-04T02:39:44;101225.59;;;23.35;100.00
47260;BME280;32999;52.412;4.890;2022-08-04T02:44:49;101234.09;;;23.39;100.00
47260;BME280;32999;52.412;4.890;2022-08-04T02:49:53;101187.59;;;23.19;100.00
47260;BME280;32999;52.412;4.890;2022-08-04T02:54:58;101191.44;;;23.23;100.00
47260;BME280;32999;52.412;4.890;2022-08-04T03:00:06;101213.88;;;23.35;100.00
47260;BME280;32999;52.412;4.890;2022-08-04T03:05:16;101208.94;;;23.32;100.00
47260;BME280;32999;52.412;4.890;2022-08-04T03:10:29;101209.19;;;23.30;100.00
47260;BME280;32999;52.412;4.890;2022-08-04T03:16:09;101202.91;;;23.25;100.00
47260;BME280;32999;52.412;4.890;2022-08-04T03:21:42;101150.56;;;22.91;100.00
47260;BME280;32999;52.412;4.890;2022-08-04T03:27:17;101143.13;;;22.81;100.00
47260;BME280;32999;52.412;4.890;2022-08-04T03:38:39;101152.97;;;22.87;100.00
47260;BME280;32999;52.412;4.890;2022-08-04T03:49:52;101194.38;;;23.16;100.00
47260;BME280;32999;52.412;4.890;2022-08-04T03:55:33;101192.78;;;23.20;100.00
47260;BME280;32999;52.412;4.890;2022-08-04T04:00:49;101177.72;;;23.13;100.00
47260;BME280;32999;52.412;4.890;2022-08-04T04:17:29;101182.75;;;23.26;100.00
47260;BME280;32999;52.412;4.890;2022-08-04T04:22:50;101189.84;;;23.32;100.00
47260;BME280;32999;52.412;4.890;2022-08-04T04:28:13;101185.50;;;23.36;100.00
47260;BME280;32999;52.412;4.890;2022-08-04T04:33:36;101175.91;;;23.28;100.00
47260;BME280;32999;52.412;4.890;2022-08-04T04:39:00;101115.13;;;22.91;100.00
47260;BME280;32999;52.412;4.890;2022-08-04T04:49:53;101192.50;;;23.59;100.00
47260;BME280;32999;52.412;4.890;2022-08-04T04:54:59;101190.91;;;23.63;100.00
47260;BME280;32999;52.412;4.890;2022-08-04T05:00:05;101166.28;;;23.53;100.00
47260;BME280;32999;52.412;4.890;2022-08-04T05:05:27;101201.63;;;23.80;100.00
47260;BME280;32999;52.412;4.890;2022-08-04T05:10:39;101198.66;;;23.86;100.00
47260;BME280;32999;52.412;4.890;2022-08-04T05:15:48;101210.47;;;23.97;100.00
47260;BME280;32999;52.412;4.890;2022-08-04T05:20:57;101207.19;;;24.05;100.00
47260;BME280;32999;52.412;4.890;2022-08-04T05:26:08;101206.94;;;24.06;100.00
47260;BME280;32999;52.412;4.890;2022-08-04T05:31:15;101201.75;;;24.10;100.00
47260;BME280;32999;52.412;4.890;2022-08-04T05:36:23;101212.75;;;24.25;100.00
47260;BME280;32999;52.412;4.890;2022-08-04T05:41:28;101205.34;;;24.21;100.00
47260;BME280;32999;52.412;4.890;2022-08-04T05:46:31;101212.84;;;24.46;100.00
47260;BME280;32999;52.412;4.890;2022-08-04T05:51:34;101195.34;;;24.41;100.00
47260;BME280;32999;52.412;4.890;2022-08-04T05:56:36;101166.31;;;24.25;100.00
47260;BME280;32999;52.412;4.890;2022-08-04T06:01:39;101215.31;;;24.57;100.00
47260;BME280;32999;52.412;4.890;2022-08-04T06:06:43;101134.56;;;24.04;100.00
47260;BME280;32999;52.412;4.890;2022-08-04T06:11:46;101225.16;;;24.63;100.00
47260;BME280;32999;52.412;4.890;2022-08-04T06:16:51;101185.72;;;24.24;100.00
47260;BME280;32999;52.412;4.890;2022-08-04T06:21:57;101230.03;;;24.51;100.00
47260;BME280;32999;52.412;4.890;2022-08-04T06:27:03;101227.59;;;24.50;100.00
47260;BME280;32999;52.412;4.890;2022-08-04T06:32:07;101175.59;;;24.19;100.00
47260;BME280;32999;52.412;4.890;2022-08-04T06:37:25;101208.41;;;24.29;100.00
47260;BME280;32999;52.412;4.890;2022-08-04T06:42:28;101229.81;;;24.63;100.00
47260;BME280;32999;52.412;4.890;2022-08-04T06:47:31;101237.75;;;24.80;100.00
47260;BME280;32999;52.412;4.890;2022-08-04T06:52:34;101252.81;;;24.92;100.00
47260;BME280;32999;52.412;4.890;2022-08-04T06:57:36;101206.31;;;24.82;100.00
47260;BME280;32999;52.412;4.890;2022-08-04T07:02:43;101246.31;;;25.24;100.00
47260;BME280;32999;52.412;4.890;2022-08-04T07:07:48;101240.81;;;25.44;100.00
47260;BME280;32999;52.412;4.890;2022-08-04T07:12:50;101251.22;;;25.67;100.00
47260;BME280;32999;52.412;4.890;2022-08-04T07:17:55;101250.91;;;25.79;100.00
47260;BME280;32999;52.412;4.890;2022-08-04T07:23:03;101221.59;;;25.80;100.00
47260;BME280;32999;52.412;4.890;2022-08-04T07:28:06;101258.19;;;26.09;100.00
47260;BME280;32999;52.412;4.890;2022-08-04T07:33:10;101262.50;;;26.35;100.00
47260;BME280;32999;52.412;4.890;2022-08-04T07:38:14;101218.22;;;26.08;100.00
47260;BME280;32999;52.412;4.890;2022-08-04T07:43:16;101224.69;;;26.27;100.00
47260;BME280;32999;52.412;4.890;2022-08-04T07:48:19;101245.50;;;26.38;100.00
47260;BME280;32999;52.412;4.890;2022-08-04T07:53:25;101232.53;;;26.54;100.00
47260;BME280;32999;52.412;4.890;2022-08-04T07:58:27;101274.44;;;27.04;100.00
47260;BME280;32999;52.412;4.890;2022-08-04T08:03:29;101264.66;;;27.27;100.00
47260;BME280;32999;52.412;4.890;2022-08-04T08:08:32;101200.47;;;26.89;100.00
47260;BME280;32999;52.412;4.890;2022-08-04T08:13:38;101265.13;;;27.05;100.00
47260;BME280;32999;52.412;4.890;2022-08-04T08:18:40;101275.03;;;27.35;100.00
47260;BME280;32999;52.412;4.890;2022-08-04T08:23:43;101188.44;;;26.85;100.00
47260;BME280;32999;52.412;4.890;2022-08-04T08:28:45;101248.72;;;27.29;100.00
47260;BME280;32999;52.412;4.890;2022-08-04T08:33:47;101230.00;;;27.36;100.00
47260;BME280;32999;52.412;4.890;2022-08-04T08:38:58;101272.44;;;27.77;100.00
47260;BME280;32999;52.412;4.890;2022-08-04T08:44:15;101264.34;;;28.15;100.00
47260;BME280;32999;52.412;4.890;2022-08-04T08:49:45;101264.94;;;28.55;100.00
47260;BME280;32999;52.412;4.890;2022-08-04T08:55:12;101286.59;;;28.99;100.00
47260;BME280;32999;52.412;4.890;2022-08-04T09:00:25;101281.69;;;29.15;99.21
47260;BME280;32999;52.412;4.890;2022-08-04T09:11:03;101268.41;;;29.82;91.28
47260;BME280;32999;52.412;4.890;2022-08-04T09:16:13;101228.00;;;29.91;88.82
47260;BME280;32999;52.412;4.890;2022-08-04T09:21:25;101304.09;;;30.83;81.69
47260;BME280;32999;52.412;4.890;2022-08-04T09:26:38;101307.53;;;31.69;80.23
47260;BME280;32999;52.412;4.890;2022-08-04T09:31:53;101315.75;;;31.60;78.92
47260;BME280;32999;52.412;4.890;2022-08-04T09:37:06;101317.31;;;31.75;82.80
47260;BME280;32999;52.412;4.890;2022-08-04T09:42:19;101307.19;;;32.01;72.57
47260;BME280;32999;52.412;4.890;2022-08-04T09:47:25;101316.94;;;31.99;74.01
47260;BME280;32999;52.412;4.890;2022-08-04T09:52:36;101315.66;;;30.71;76.11
47260;BME280;32999;52.412;4.890;2022-08-04T09:57:54;101341.84;;;30.32;79.48
47260;BME280;32999;52.412;4.890;2022-08-04T10:03:00;101342.88;;;30.09;79.06
47260;BME280;32999;52.412;4.890;2022-08-04T10:08:22;101355.22;;;30.11;77.02
47260;BME280;32999;52.412;4.890;2022-08-04T10:13:41;101362.91;;;29.82;78.81
47260;BME280;32999;52.412;4.890;2022-08-04T10:18:58;101371.47;;;29.81;78.08
47260;BME280;32999;52.412;4.890;2022-08-04T10:24:23;101358.03;;;31.02;74.80
47260;BME280;32999;52.412;4.890;2022-08-04T10:29:37;101344.13;;;30.58;73.51
47260;BME280;32999;52.412;4.890;2022-08-04T10:34:45;101321.09;;;29.94;71.32
47260;BME280;32999;52.412;4.890;2022-08-04T10:39:54;101330.47;;;30.89;69.51
47260;BME280;32999;52.412;4.890;2022-08-04T10:45:33;101345.47;;;32.08;68.47
47260;BME280;32999;52.412;4.890;2022-08-04T10:50:40;101324.72;;;33.10;62.62
47260;BME280;32999;52.412;4.890;2022-08-04T10:55:47;101320.50;;;32.87;59.36
47260;BME280;32999;52.412;4.890;2022-08-04T11:00:53;101286.66;;;31.94;62.23
47260;BME280;32999;52.412;4.890;2022-08-04T11:05:57;101306.81;;;34.27;59.72
47260;BME280;32999;52.412;4.890;2022-08-04T11:11:07;101289.78;;;35.99;53.45
47260;BME280;32999;52.412;4.890;2022-08-04T11:16:16;101212.91;;;37.27;44.34
47260;BME280;32999;52.412;4.890;2022-08-04T11:21:20;101245.53;;;38.56;40.35
47260;BME280;32999;52.412;4.890;2022-08-04T11:26:31;101256.53;;;38.84;39.74
47260;BME280;32999;52.412;4.890;2022-08-04T11:31:42;101257.22;;;40.10;37.27
47260;BME280;32999;52.412;4.890;2022-08-04T11:36:53;101274.03;;;40.37;36.93
47260;BME280;32999;52.412;4.890;2022-08-04T11:42:05;101252.00;;;40.35;35.63
47260;BME280;32999;52.412;4.890;2022-08-04T11:47:18;101199.44;;;40.55;35.40
47260;BME280;32999;52.412;4.890;2022-08-04T11:52:21;101252.72;;;39.34;36.70
47260;BME280;32999;52.412;4.890;2022-08-04T11:57:23;101309.78;;;38.56;38.00
47260;BME280;32999;52.412;4.890;2022-08-04T12:02:40;101294.25;;;39.12;36.22
47260;BME280;32999;52.412;4.890;2022-08-04T12:07:57;101263.16;;;40.92;33.54
47260;BME280;32999;52.412;4.890;2022-08-04T12:13:07;101296.50;;;39.68;36.36
47260;BME280;32999;52.412;4.890;2022-08-04T12:18:18;101248.53;;;38.47;36.73
47260;BME280;32999;52.412;4.890;2022-08-04T12:23:24;101269.66;;;38.64;36.58
47260;BME280;32999;52.412;4.890;2022-08-04T12:28:30;101274.25;;;39.75;35.22
47260;BME280;32999;52.412;4.890;2022-08-04T12:33:39;101259.69;;;40.16;33.72
47260;BME280;32999;52.412;4.890;2022-08-04T12:38:48;101202.22;;;39.72;35.12
47260;BME280;32999;52.412;4.890;2022-08-04T12:43:51;101166.91;;;40.17;34.32
47260;BME280;32999;52.412;4.890;2022-08-04T12:49:00;101203.94;;;40.97;32.23
47260;BME280;32999;52.412;4.890;2022-08-04T12:54:03;101276.25;;;39.52;34.16
47260;BME280;32999;52.412;4.890;2022-08-04T12:59:07;101307.28;;;39.89;34.79
47260;BME280;32999;52.412;4.890;2022-08-04T13:04:15;101292.31;;;37.76;36.88
47260;BME280;32999;52.412;4.890;2022-08-04T13:09:19;101330.03;;;38.18;36.42
47260;BME280;32999;52.412;4.890;2022-08-04T13:14:24;101213.91;;;38.32;34.22
47260;BME280;32999;52.412;4.890;2022-08-04T13:19:32;101290.25;;;39.33;32.44
47260;BME280;32999;52.412;4.890;2022-08-04T13:24:34;101246.72;;;38.93;33.53
47260;BME280;32999;52.412;4.890;2022-08-04T13:29:42;101353.81;;;36.23;37.87
47260;BME280;32999;52.412;4.890;2022-08-04T13:34:47;101399.75;;;34.89;42.39
47260;BME280;32999;52.412;4.890;2022-08-04T13:39:50;101396.09;;;33.05;44.99
47260;BME280;32999;52.412;4.890;2022-08-04T13:44:54;101436.44;;;32.80;49.37
47260;BME280;32999;52.412;4.890;2022-08-04T13:50:14;101403.59;;;31.94;52.38
47260;BME280;32999;52.412;4.890;2022-08-04T13:55:20;101464.25;;;31.32;57.09
47260;BME280;32999;52.412;4.890;2022-08-04T14:00:24;101420.28;;;31.22;57.81
47260;BME280;32999;52.412;4.890;2022-08-04T14:05:29;101409.25;;;31.08;59.92
47260;BME280;32999;52.412;4.890;2022-08-04T14:10:31;101436.75;;;31.00;60.53
47260;BME280;32999;52.412;4.890;2022-08-04T14:15:36;101442.19;;;30.50;62.50
47260;BME280;32999;52.412;4.890;2022-08-04T14:20:56;101442.13;;;30.09;67.08
47260;BME280;32999;52.412;4.890;2022-08-04T14:25:59;101448.84;;;30.03;66.22
47260;BME280;32999;52.412;4.890;2022-08-04T14:31:18;101406.91;;;29.36;67.01
47260;BME280;32999;52.412;4.890;2022-08-04T14:36:40;101380.41;;;28.78;67.47
47260;BME280;32999;52.412;4.890;2022-08-04T14:41:46;101438.72;;;29.04;67.42
47260;BME280;32999;52.412;4.890;2022-08-04T14:46:49;101446.03;;;29.33;68.82
47260;BME280;32999;52.412;4.890;2022-08-04T14:51:55;101443.13;;;29.24;68.09
47260;BME280;32999;52.412;4.890;2022-08-04T14:57:01;101448.44;;;28.97;70.40
47260;BME280;32999;52.412;4.890;2022-08-04T15:02:03;101456.41;;;28.98;70.90
47260;BME280;32999;52.412;4.890;2022-08-04T15:07:08;101437.38;;;29.21;67.57
47260;BME280;32999;52.412;4.890;2022-08-04T15:12:09;101377.97;;;28.53;66.33
47260;BME280;32999;52.412;4.890;2022-08-04T15:17:12;101399.34;;;28.85;68.47
47260;BME280;32999;52.412;4.890;2022-08-04T15:22:15;101459.25;;;28.93;68.39
47260;BME280;32999;52.412;4.890;2022-08-04T15:27:18;101442.75;;;28.93;67.05
47260;BME280;32999;52.412;4.890;2022-08-04T15:32:20;101468.94;;;28.62;69.82
47260;BME280;32999;52.412;4.890;2022-08-04T15:37:27;101460.53;;;28.48;70.75
47260;BME280;32999;52.412;4.890;2022-08-04T15:42:31;101444.53;;;28.26;70.76
47260;BME280;32999;52.412;4.890;2022-08-04T15:47:36;101466.22;;;28.57;69.75
47260;BME280;32999;52.412;4.890;2022-08-04T15:53:02;101461.03;;;28.55;70.14
47260;BME280;32999;52.412;4.890;2022-08-04T15:58:05;101460.22;;;28.26;69.62
47260;BME280;32999;52.412;4.890;2022-08-04T16:03:40;101433.50;;;28.31;68.56
47260;BME280;32999;52.412;4.890;2022-08-04T16:08:58;101388.16;;;28.29;70.42
47260;BME280;32999;52.412;4.890;2022-08-04T16:14:07;101371.63;;;28.05;68.26
47260;BME280;32999;52.412;4.890;2022-08-04T16:19:16;101361.88;;;27.55;70.35
47260;BME280;32999;52.412;4.890;2022-08-04T16:24:27;101448.56;;;28.05;75.61
47260;BME280;32999;52.412;4.890;2022-08-04T16:29:37;101483.03;;;27.92;75.00
47260;BME280;32999;52.412;4.890;2022-08-04T16:34:40;101487.53;;;27.78;75.96
47260;BME280;32999;52.412;4.890;2022-08-04T16:39:44;101523.56;;;27.71;79.88
47260;BME280;32999;52.412;4.890;2022-08-04T16:44:58;101519.03;;;27.47;82.35
47260;BME280;32999;52.412;4.890;2022-08-04T16:50:01;101468.97;;;27.10;84.69
47260;BME280;32999;52.412;4.890;2022-08-04T16:55:04;101476.91;;;27.17;87.06
47260;BME280;32999;52.412;4.890;2022-08-04T17:00:07;101440.59;;;26.56;86.93
47260;BME280;32999;52.412;4.890;2022-08-04T17:05:19;101425.03;;;26.46;91.89
47260;BME280;32999;52.412;4.890;2022-08-04T17:10:32;101477.06;;;26.66;93.42
47260;BME280;32999;52.412;4.890;2022-08-04T17:15:34;101465.28;;;26.56;93.83
47260;BME280;32999;52.412;4.890;2022-08-04T17:20:39;101487.75;;;26.58;97.28
47260;BME280;32999;52.412;4.890;2022-08-04T17:25:51;101418.47;;;26.06;100.00
47260;BME280;32999;52.412;4.890;2022-08-04T17:30:55;101450.50;;;26.26;100.00
47260;BME280;32999;52.412;4.890;2022-08-04T17:35:59;101394.59;;;25.51;100.00
47260;BME280;32999;52.412;4.890;2022-08-04T17:41:02;101500.34;;;25.77;100.00
47260;BME280;32999;52.412;4.890;2022-08-04T17:46:18;101501.00;;;25.17;100.00
47260;BME280;32999;52.412;4.890;2022-08-04T17:51:21;101465.34;;;24.97;100.00
47260;BME280;32999;52.412;4.890;2022-08-04T17:56:29;101469.31;;;24.79;100.00
47260;BME280;32999;52.412;4.890;2022-08-04T18:01:56;101513.19;;;24.99;100.00
47260;BME280;32999;52.412;4.890;2022-08-04T18:07:01;101453.59;;;24.49;100.00
47260;BME280;32999;52.412;4.890;2022-08-04T18:12:07;101487.22;;;24.55;100.00
47260;BME280;32999;52.412;4.890;2022-08-04T18:17:11;101493.25;;;24.20;100.00
47260;BME280;32999;52.412;4.890;2022-08-04T18:22:13;101417.66;;;23.61;100.00
47260;BME280;32999;52.412;4.890;2022-08-04T18:27:18;101514.69;;;24.06;100.00
47260;BME280;32999;52.412;4.890;2022-08-04T18:32:21;101510.19;;;23.90;100.00
47260;BME280;32999;52.412;4.890;2022-08-04T18:37:25;101377.34;;;23.15;100.00
47260;BME280;32999;52.412;4.890;2022-08-04T18:42:30;101516.09;;;23.82;100.00
47260;BME280;32999;52.412;4.890;2022-08-04T18:47:31;101491.66;;;23.43;100.00
47260;BME280;32999;52.412;4.890;2022-08-04T18:52:33;101400.06;;;22.98;100.00
47260;BME280;32999;52.412;4.890;2022-08-04T18:57:36;101563.44;;;23.65;100.00
47260;BME280;32999;52.412;4.890;2022-08-04T19:02:38;101551.44;;;23.45;100.00
47260;BME280;32999;52.412;4.890;2022-08-04T19:07:40;101512.53;;;23.11;100.00
47260;BME280;32999;52.412;4.890;2022-08-04T19:12:52;101566.16;;;23.44;100.00
47260;BME280;32999;52.412;4.890;2022-08-04T19:17:54;101571.13;;;23.52;100.00
47260;BME280;32999;52.412;4.890;2022-08-04T19:22:56;101551.53;;;23.11;100.00
47260;BME280;32999;52.412;4.890;2022-08-04T19:27:59;101600.66;;;23.33;100.00
47260;BME280;32999;52.412;4.890;2022-08-04T19:33:01;101588.66;;;23.34;100.00
47260;BME280;32999;52.412;4.890;2022-08-04T19:38:03;101476.38;;;22.60;100.00
47260;BME280;32999;52.412;4.890;2022-08-04T19:43:10;101585.34;;;23.10;100.00
47260;BME280;32999;52.412;4.890;2022-08-04T19:48:12;101597.31;;;23.26;100.00
47260;BME280;32999;52.412;4.890;2022-08-04T19:53:14;101549.13;;;22.76;100.00
47260;BME280;32999;52.412;4.890;2022-08-04T19:58:21;101550.34;;;22.85;100.00
47260;BME280;32999;52.412;4.890;2022-08-04T20:03:32;101613.63;;;22.87;100.00
47260;BME280;32999;52.412;4.890;2022-08-04T20:08:35;101587.53;;;22.74;100.00
47260;BME280;32999;52.412;4.890;2022-08-04T20:13:38;101495.44;;;21.93;100.00
47260;BME280;32999;52.412;4.890;2022-08-04T20:18:40;101607.84;;;22.67;100.00
47260;BME280;32999;52.412;4.890;2022-08-04T20:23:42;101606.00;;;22.56;100.00
47260;BME280;32999;52.412;4.890;2022-08-04T20:28:45;101577.75;;;22.28;100.00
47260;BME280;32999;52.412;4.890;2022-08-04T20:33:47;101616.16;;;22.44;100.00
47260;BME280;32999;52.412;4.890;2022-08-04T20:38:49;101630.38;;;22.46;100.00
47260;BME280;32999;52.412;4.890;2022-08-04T20:43:53;101630.72;;;22.49;100.00
47260;BME280;32999;52.412;4.890;2022-08-04T20:48:54;101628.03;;;22.37;100.00
47260;BME280;32999;52.412;4.890;2022-08-04T20:53:56;101630.66;;;22.32;100.00
47260;BME280;32999;52.412;4.890;2022-08-04T20:59:00;101523.75;;;21.63;100.00
47260;BME280;32999;52.412;4.890;2022-08-04T21:04:02;101600.84;;;22.09;100.00
47260;BME280;32999;52.412;4.890;2022-08-04T21:09:21;101619.03;;;22.20;100.00
47260;BME280;32999;52.412;4.890;2022-08-04T21:14:24;101641.81;;;22.31;100.00
47260;BME280;32999;52.412;4.890;2022-08-04T21:19:28;101639.84;;;22.26;100.00
47260;BME280;32999;52.412;4.890;2022-08-04T21:24:31;101634.63;;;22.25;100.00
47260;BME280;32999;52.412;4.890;2022-08-04T21:29:34;101642.63;;;22.31;100.00
47260;BME280;32999;52.412;4.890;2022-08-04T21:34:36;101635.47;;;22.25;100.00
47260;BME280;32999;52.412;4.890;2022-08-04T21:39:38;101610.44;;;22.00;100.00
47260;BME280;32999;52.412;4.890;2022-08-04T21:44:41;101509.53;;;21.33;100.00
47260;BME280;32999;52.412;4.890;2022-08-04T21:49:43;101641.59;;;21.92;100.00
47260;BME280;32999;52.412;4.890;2022-08-04T21:54:45;101631.91;;;21.85;100.00
47260;BME280;32999;52.412;4.890;2022-08-04T21:59:49;101649.31;;;21.84;100.00
47260;BME280;32999;52.412;4.890;2022-08-04T22:04:51;101642.50;;;21.69;100.00
47260;BME280;32999;52.412;4.890;2022-08-04T22:09:53;101627.72;;;21.65;100.00
47260;BME280;32999;52.412;4.890;2022-08-04T22:14:56;101630.44;;;21.65;100.00
47260;BME280;32999;52.412;4.890;2022-08-04T22:19:58;101623.72;;;21.56;100.00
47260;BME280;32999;52.412;4.890;2022-08-04T22:25:01;101604.81;;;21.50;100.00
47260;BME280;32999;52.412;4.890;2022-08-04T22:30:06;101603.06;;;21.32;100.00
47260;BME280;32999;52.412;4.890;2022-08-04T22:35:11;101597.88;;;21.19;100.00
47260;BME280;32999;52.412;4.890;2022-08-04T22:40:16;101610.63;;;21.30;100.00
47260;BME280;32999;52.412;4.890;2022-08-04T22:45:22;101601.91;;;21.28;100.00
47260;BME280;32999;52.412;4.890;2022-08-04T22:50:24;101542.00;;;20.88;100.00
47260;BME280;32999;52.412;4.890;2022-08-04T22:55:25;101580.25;;;21.10;100.00
47260;BME280;32999;52.412;4.890;2022-08-04T23:00:29;101454.75;;;20.37;100.00
47260;BME280;32999;52.412;4.890;2022-08-04T23:05:30;101583.69;;;21.17;100.00
47260;BME280;32999;52.412;4.890;2022-08-04T23:10:32;101504.44;;;20.61;100.00
47260;BME280;32999;52.412;4.890;2022-08-04T23:15:35;101569.03;;;21.18;100.00
47260;BME280;32999;52.412;4.890;2022-08-04T23:20:37;101573.19;;;21.20;100.00
47260;BME280;32999;52.412;4.890;2022-08-04T23:25:42;101519.41;;;20.87;100.00
47260;BME280;32999;52.412;4.890;2022-08-04T23:30:46;101563.69;;;21.11;100.00
47260;BME280;32999;52.412;4.890;2022-08-04T23:35:48;101569.41;;;20.98;100.00
47260;BME280;32999;52.412;4.890;2022-08-04T23:40:50;101603.44;;;21.24;100.00
47260;BME280;32999;52.412;4.890;2022-08-04T23:45:53;101609.22;;;21.16;100.00
47260;BME280;32999;52.412;4.890;2022-08-04T23:51:01;101597.63;;;21.09;100.00
47260;BME280;32999;52.412;4.890;2022-08-04T23:56:07;101476.06;;;20.22;100.00
